Time;durP1;ratioP1;P1;durP2;ratioP2;P2;SDS_P1;SDS_P2;PMS_P1;PMS_P2;Temp;Humidity;BMP_temperature;BMP_pressure;BME280_temperature;BME280_humidity;BME280_pressure;Samples;Min_cycle;Max_cycle;Signal;HPM_P1;HPM_P2
2023/02/20 00:00:58;;;;;;;16.08;12.90;;;11.20;99.90;;;;;;5134943;27;20051;-53
2023/02/20 00:03:24;;;;;;;14.23;11.45;;;11.00;99.90;;;;;;5115989;27;20031;-53
2023/02/20 00:05:49;;;;;;;15.68;12.35;;;11.00;99.90;;;;;;5135016;27;20023;-54
2023/02/20 00:08:15;;;;;;;16.02;12.07;;;10.90;99.90;;;;;;5135401;27;20016;-53
2023/02/20 00:10:41;;;;;;;15.32;12.25;;;10.90;99.90;;;;;;5135250;27;20134;-53
2023/02/20 00:13:07;;;;;;;13.80;11.68;;;10.90;99.90;;;;;;5134843;27;20023;-54
2023/02/20 00:15:32;;;;;;;17.73;13.48;;;10.90;99.90;;;;;;5134705;27;20038;-53
2023/02/20 00:17:58;;;;;;;15.35;11.98;;;10.90;99.90;;;;;;5135095;27;20401;-53
2023/02/20 00:20:25;;;;;;;15.10;12.13;;;11.00;99.90;;;;;;5134813;27;20474;-53
2023/02/20 00:22:51;;;;;;;20.85;14.05;;;10.90;99.90;;;;;;5134538;27;20023;-53
2023/02/20 00:25:19;;;;;;;18.13;13.32;;;11.00;99.90;;;;;;5134636;27;20038;-54
2023/02/20 00:27:45;;;;;;;17.95;14.18;;;11.00;99.90;;;;;;5134716;27;20019;-54
2023/02/20 00:30:19;;;;;;;15.45;12.43;;;11.00;99.90;;;;;;5134401;27;20042;-54
2023/02/20 00:32:46;;;;;;;15.98;12.35;;;10.90;99.90;;;;;;5134199;27;20359;-52
2023/02/20 00:35:12;;;;;;;16.85;13.52;;;11.00;99.90;;;;;;5134259;27;20027;-52
2023/02/20 00:37:38;;;;;;;15.57;12.57;;;11.00;99.90;;;;;;5134434;27;20034;-53
2023/02/20 00:40:05;;;;;;;14.32;12.02;;;11.00;99.90;;;;;;5133692;27;20019;-52
2023/02/20 00:42:31;;;;;;;15.90;11.27;;;11.10;99.90;;;;;;5131979;27;20031;-52
2023/02/20 00:44:56;;;;;;;15.15;11.55;;;11.10;99.90;;;;;;5133840;27;20079;-52
2023/02/20 00:47:22;;;;;;;15.55;12.27;;;11.00;99.90;;;;;;5133580;27;20030;-54
2023/02/20 00:49:47;;;;;;;15.48;12.07;;;11.10;99.90;;;;;;5107528;28;20187;-52
2023/02/20 00:52:13;;;;;;;15.32;11.68;;;11.10;99.90;;;;;;5124343;27;20015;-53
2023/02/20 00:54:39;;;;;;;14.15;11.30;;;11.00;99.90;;;;;;5122292;27;20565;-53
2023/02/20 00:57:05;;;;;;;15.00;11.38;;;11.00;99.90;;;;;;5134339;27;20031;-53
2023/02/20 00:59:30;;;;;;;14.35;9.82;;;11.00;99.90;;;;;;5102186;28;20431;-53
2023/02/20 01:01:57;;;;;;;11.95;9.13;;;;;;;;;;5118977;28;20099;-53
2023/02/20 01:04:23;;;;;;;9.55;7.63;;;;;;;;;;5111754;28;20455;-52
2023/02/20 01:06:48;;;;;;;8.18;6.47;;;10.80;99.90;;;;;;5113624;28;20073;-52
2023/02/20 01:09:14;;;;;;;7.43;4.57;;;10.70;99.90;;;;;;5113517;28;20425;-53
2023/02/20 01:11:44;;;;;;;6.20;3.40;;;10.70;99.90;;;;;;5113643;28;20045;-52
2023/02/20 01:14:10;;;;;;;4.07;2.80;;;10.60;99.90;;;;;;5113714;28;20371;-52
2023/02/20 01:16:35;;;;;;;3.90;2.92;;;10.60;99.90;;;;;;5113390;28;20035;-52
2023/02/20 01:19:01;;;;;;;2.25;1.77;;;10.60;99.90;;;;;;5113552;28;20027;-52
2023/02/20 01:21:27;;;;;;;1.35;0.93;;;10.60;99.90;;;;;;5113413;28;20104;-53
2023/02/20 01:23:53;;;;;;;4.80;1.20;;;;;;;;;;5113763;28;20451;-53
2023/02/20 01:26:19;;;;;;;3.30;1.08;;;;;;;;;;5113305;28;20023;-53
2023/02/20 01:28:48;;;;;;;1.10;0.73;;;10.70;99.90;;;;;;5113390;28;20020;-53
2023/02/20 01:31:14;;;;;;;1.10;0.73;;;10.60;99.90;;;;;;5113839;28;20032;-52
2023/02/20 01:33:43;;;;;;;1.67;0.70;;;10.70;99.90;;;;;;5094220;28;20406;-53
2023/02/20 01:36:09;;;;;;;0.60;0.60;;;10.60;99.90;;;;;;5119747;28;20045;-52
2023/02/20 01:38:36;;;;;;;0.95;0.65;;;10.60;99.90;;;;;;5133806;27;20455;-53
2023/02/20 01:41:01;;;;;;;1.25;0.95;;;10.60;99.90;;;;;;5133783;27;20029;-53
2023/02/20 01:43:27;;;;;;;1.13;0.93;;;10.60;99.90;;;;;;5133608;27;20038;-53
2023/02/20 01:45:53;;;;;;;1.45;1.08;;;10.60;99.90;;;;;;5114761;28;20084;-53
2023/02/20 01:48:25;;;;;;;1.88;1.15;;;10.60;99.90;;;;;;5131969;28;20045;-52
2023/02/20 01:50:58;;;;;;;1.35;1.02;;;10.70;99.90;;;;;;5133672;27;20524;-53
2023/02/20 01:53:27;;;;;;;0.90;0.82;;;10.70;99.90;;;;;;5133631;27;20027;-53
2023/02/20 01:56:00;;;;;;;2.05;1.10;;;10.70;99.90;;;;;;5133553;27;20042;-52
2023/02/20 01:58:34;;;;;;;0.90;0.90;;;10.60;99.90;;;;;;5133779;27;20023;-52
2023/02/20 02:01:01;;;;;;;1.60;1.15;;;10.70;99.90;;;;;;5133278;28;20055;-52
2023/02/20 02:03:32;;;;;;;1.35;0.93;;;10.60;99.90;;;;;;5133701;27;20016;-53
2023/02/20 02:06:35;;;;;;;1.58;1.00;;;10.60;99.90;;;;;;5118320;27;20087;-52
2023/02/20 02:09:07;;;;;;;1.52;1.00;;;9.90;99.90;;;;;;5137208;27;20489;-53
2023/02/20 02:11:35;;;;;;;2.10;1.73;;;10.60;99.90;;;;;;5137438;27;20054;-52
2023/02/20 02:14:01;;;;;;;2.33;1.92;;;10.70;99.90;;;;;;5118738;27;20087;-53
2023/02/20 02:16:46;;;;;;;5.03;3.75;;;10.70;99.90;;;;;;5137102;27;20023;-53
2023/02/20 02:19:37;;;;;;;4.20;2.78;;;10.90;99.90;;;;;;5137279;27;20098;-53
2023/02/20 02:22:24;;;;;;;6.07;4.47;;;11.00;99.90;;;;;;5137297;27;20058;-53
2023/02/20 02:25:19;;;;;;;6.63;4.95;;;11.10;99.90;;;;;;5136848;27;20114;-53
2023/02/20 02:28:00;;;;;;;7.82;5.63;;;11.20;99.90;;;;;;5136749;27;20031;-52
2023/02/20 02:30:45;;;;;;;7.90;6.30;;;11.20;99.90;;;;;;5136586;27;20035;-52
2023/02/20 02:33:41;;;;;;;8.40;6.90;;;11.20;99.90;;;;;;5136842;27;20103;-52
2023/02/20 02:36:22;;;;;;;8.77;7.07;;;11.30;99.90;;;;;;5117542;27;20043;-52
2023/02/20 02:39:17;;;;;;;9.18;7.25;;;11.20;99.90;;;;;;5137101;27;20042;-52
2023/02/20 02:41:55;;;;;;;6.07;4.25;;;11.10;99.90;;;;;;5136435;27;20378;-52
2023/02/20 02:44:33;;;;;;;5.13;3.28;;;10.80;99.90;;;;;;5134737;27;20091;-52
2023/02/20 02:47:07;;;;;;;2.80;2.13;;;10.50;99.90;;;;;;5136894;27;20072;-53
2023/02/20 02:49:45;;;;;;;3.85;1.60;;;10.40;99.90;;;;;;5136573;27;20023;-52
2023/02/20 02:52:11;;;;;;;2.47;1.70;;;10.30;99.90;;;;;;5136391;27;20490;-52
2023/02/20 02:54:38;;;;;;;2.83;1.30;;;10.40;99.90;;;;;;5135913;27;20351;-52
2023/02/20 02:57:24;;;;;;;1.77;1.30;;;10.40;99.90;;;;;;5113790;28;20035;-52
2023/02/20 02:59:57;;;;;;;1.45;1.35;;;10.30;99.90;;;;;;5113246;28;20116;-52
2023/02/20 03:02:27;;;;;;;1.55;1.35;;;10.20;99.90;;;;;;5113419;28;20163;-52
2023/02/20 03:04:55;;;;;;;1.40;1.20;;;10.30;99.90;;;;;;5113345;28;20039;-52
2023/02/20 03:07:23;;;;;;;1.83;1.40;;;10.20;99.90;;;;;;5113347;28;20039;-53
2023/02/20 03:10:19;;;;;;;1.80;1.50;;;10.20;99.90;;;;;;5113298;28;20031;-52
2023/02/20 03:12:49;;;;;;;2.42;1.60;;;10.20;99.90;;;;;;5113112;28;20118;-52
2023/02/20 03:15:36;;;;;;;2.97;1.20;;;10.20;99.90;;;;;;5112994;28;20050;-52
2023/02/20 03:18:14;;;;;;;1.55;1.45;;;10.20;99.90;;;;;;5092675;28;20042;-52
2023/02/20 03:21:04;;;;;;;3.08;1.45;;;10.30;99.90;;;;;;5090638;28;20036;-52
2023/02/20 03:23:34;;;;;;;1.55;1.42;;;10.30;99.90;;;;;;5092640;28;20434;-52
2023/02/20 03:26:04;;;;;;;1.27;1.10;;;10.30;99.90;;;;;;5092512;28;20039;-52
2023/02/20 03:28:40;;;;;;;1.85;1.27;;;10.20;99.90;;;;;;5106800;28;20051;-52
2023/02/20 03:31:09;;;;;;;1.88;1.40;;;10.20;99.90;;;;;;5106138;28;20027;-52
2023/02/20 03:45:19;;;;;;;5.03;2.00;;;10.20;99.90;;;;;;5098638;28;20521;-53
2023/02/20 03:47:49;;;;;;;2.17;1.67;;;10.20;99.90;;;;;;5112693;27;20115;-52
2023/02/20 03:52:59;;;;;;;6.65;2.72;;;10.30;99.90;;;;;;5135637;27;20045;-52
2023/02/20 03:55:26;;;;;;;5.07;2.30;;;10.20;99.90;;;;;;5135025;27;20405;-53
2023/02/20 03:57:57;;;;;;;7.15;2.40;;;10.30;99.90;;;;;;5133166;27;20080;-52
2023/02/20 04:00:28;;;;;;;4.50;2.07;;;10.40;99.90;;;;;;5133277;27;20055;-52
2023/02/20 04:02:59;;;;;;;3.88;2.47;;;10.40;99.90;;;;;;5134982;27;20259;-52
2023/02/20 04:05:28;;;;;;;4.07;2.00;;;10.40;99.90;;;;;;5115836;27;20031;-52
2023/02/20 04:08:17;;;;;;;3.80;2.30;;;10.50;99.90;;;;;;5134966;27;20026;-52
2023/02/20 04:11:00;;;;;;;3.85;2.55;;;10.40;99.90;;;;;;5134915;27;20031;-52
2023/02/20 04:13:26;;;;;;;5.07;3.25;;;10.30;99.90;;;;;;5134893;27;20023;-52
2023/02/20 04:15:53;;;;;;;9.40;3.15;;;10.40;99.90;;;;;;5134820;27;20080;-52
2023/02/20 04:18:21;;;;;;;10.35;2.70;;;10.40;99.90;;;;;;5134665;27;20026;-52
2023/02/20 04:20:51;;;;;;;3.58;2.30;;;10.40;99.90;;;;;;5134715;27;20035;-52
2023/02/20 04:23:21;;;;;;;4.00;2.30;;;10.40;99.90;;;;;;5134623;27;20031;-53
2023/02/20 04:25:57;;;;;;;2.05;1.67;;;10.30;99.90;;;;;;5134823;27;20050;-53
2023/02/20 04:28:24;;;;;;;1.92;1.65;;;10.30;99.90;;;;;;5134207;27;20467;-53
2023/02/20 04:30:51;;;;;;;4.28;2.40;;;10.30;99.90;;;;;;5134768;27;20031;-53
2023/02/20 04:33:18;;;;;;;3.13;2.40;;;10.50;99.90;;;;;;5134481;27;20028;-52
2023/02/20 04:35:43;;;;;;;3.10;2.13;;;10.50;99.90;;;;;;5134560;27;20118;-52
2023/02/20 04:38:10;;;;;;;2.17;1.80;;;10.50;99.90;;;;;;5134360;27;20118;-51
2023/02/20 04:40:36;;;;;;;4.47;2.65;;;10.30;99.90;;;;;;5134203;27;20027;-52
2023/02/20 04:43:02;;;;;;;2.72;1.88;;;10.20;99.90;;;;;;5134281;27;20420;-54
2023/02/20 04:45:28;;;;;;;2.90;1.80;;;10.20;99.90;;;;;;5134345;27;20103;-52
2023/02/20 04:47:54;;;;;;;2.63;1.88;;;10.20;99.90;;;;;;5134610;27;20098;-52
2023/02/20 04:50:27;;;;;;;2.25;1.60;;;10.10;99.90;;;;;;5134182;27;20027;-52
2023/02/20 04:52:53;;;;;;;3.72;1.90;;;10.00;99.90;;;;;;5134170;27;20027;-52
2023/02/20 04:55:19;;;;;;;4.53;2.00;;;9.90;99.90;;;;;;5134017;27;20039;-53
2023/02/20 04:57:46;;;;;;;5.47;2.00;;;9.90;99.90;;;;;;5134141;27;20027;-52
2023/02/20 05:00:14;;;;;;;4.50;1.80;;;9.90;99.90;;;;;;5114590;28;20080;-53
2023/02/20 05:02:40;;;;;;;3.65;2.20;;;9.90;99.90;;;;;;5134249;28;20043;-53
2023/02/20 05:05:13;;;;;;;5.40;2.67;;;9.80;99.90;;;;;;5133752;28;20057;-53
2023/02/20 05:07:39;;;;;;;3.20;2.28;;;9.80;99.90;;;;;;5134065;28;20046;-53
2023/02/20 05:10:05;;;;;;;4.57;2.10;;;9.90;99.90;;;;;;5133971;28;20024;-54
2023/02/20 05:12:31;;;;;;;4.03;2.00;;;9.90;99.90;;;;;;5133527;28;20490;-53
2023/02/20 05:14:57;;;;;;;4.90;2.10;;;9.80;99.90;;;;;;5133662;28;20035;-54
2023/02/20 05:17:22;;;;;;;2.40;1.70;;;9.90;99.90;;;;;;5133869;28;20099;-52
2023/02/20 05:19:48;;;;;;;3.45;2.00;;;9.80;99.90;;;;;;5133908;28;20050;-54
2023/02/20 05:22:20;;;;;;;3.33;1.98;;;9.80;99.90;;;;;;5134355;28;20069;-53
2023/02/20 05:24:47;;;;;;;6.40;2.20;;;10.00;99.90;;;;;;5133950;28;20031;-52
2023/02/20 05:27:15;;;;;;;3.25;1.63;;;10.10;99.90;;;;;;5132608;28;20032;-53
2023/02/20 05:29:45;;;;;;;4.85;2.13;;;10.20;99.90;;;;;;5133835;28;20026;-53
2023/02/20 05:32:11;;;;;;;6.50;2.92;;;10.10;99.90;;;;;;5133837;28;20098;-53
2023/02/20 05:34:37;;;;;;;6.90;2.50;;;10.10;99.90;;;;;;5134140;28;20505;-54
2023/02/20 05:37:02;;;;;;;3.75;2.10;;;10.00;99.90;;;;;;5063949;28;20036;-53
2023/02/20 05:39:28;;;;;;;4.50;2.33;;;10.00;99.90;;;;;;5133691;27;20031;-53
2023/02/20 05:41:54;;;;;;;6.10;2.17;;;10.10;99.90;;;;;;5137814;27;20027;-53
2023/02/20 05:44:20;;;;;;;9.00;2.30;;;10.10;99.90;;;;;;5137662;27;20027;-53
2023/02/20 05:46:45;;;;;;;4.20;1.90;;;10.10;99.90;;;;;;5137633;27;20058;-53
2023/02/20 05:49:11;;;;;;;10.45;2.50;;;10.20;99.90;;;;;;5135800;27;20088;-53
2023/02/20 05:51:38;;;;;;;8.77;2.20;;;10.30;99.90;;;;;;5137713;27;20023;-52
2023/02/20 05:54:04;;;;;;;7.45;2.03;;;10.40;99.90;;;;;;5097490;28;20124;-52
2023/02/20 05:56:31;;;;;;;6.55;2.25;;;10.50;99.90;;;;;;5114714;28;20441;-53
2023/02/20 05:58:58;;;;;;;7.28;2.70;;;10.60;99.90;;;;;;5080582;28;20053;-52
2023/02/20 06:01:29;;;;;;;3.90;2.47;;;10.60;99.90;;;;;;5114616;28;20033;-53
2023/02/20 06:03:55;;;;;;;2.50;2.00;;;10.70;99.90;;;;;;5114725;28;20038;-51
2023/02/20 06:06:21;;;;;;;3.95;1.98;;;10.70;99.90;;;;;;5114781;28;20031;-52
2023/02/20 06:08:47;;;;;;;14.93;9.40;;;10.70;99.90;;;;;;5114548;28;20042;-52
2023/02/20 06:11:14;;;;;;;8.15;3.80;;;10.70;99.90;;;;;;5114515;28;20028;-54
2023/02/20 06:13:42;;;;;;;9.80;2.67;;;10.70;99.90;;;;;;5097633;28;20039;-52
2023/02/20 06:16:08;;;;;;;16.02;4.78;;;10.80;99.90;;;;;;5063753;28;20070;-51
2023/02/20 06:18:38;;;;;;;2.80;2.20;;;10.90;99.90;;;;;;5114254;28;20037;-52
2023/02/20 06:21:08;;;;;;;7.53;5.18;;;10.90;99.90;;;;;;5114487;28;20055;-52
2023/02/20 06:23:38;;;;;;;4.90;3.70;;;10.90;99.90;;;;;;5063414;28;20466;-52
2023/02/20 06:26:05;;;;;;;7.22;6.63;;;11.00;99.90;;;;;;5135326;27;20031;-53
2023/02/20 06:28:31;;;;;;;9.48;6.60;;;11.00;99.90;;;;;;5136761;27;20028;-53
2023/02/20 06:30:56;;;;;;;7.20;5.65;;;11.00;99.90;;;;;;5117980;27;20038;-54
2023/02/20 06:33:22;;;;;;;6.70;4.00;;;11.00;99.90;;;;;;5116859;27;20501;-53
2023/02/20 06:35:48;;;;;;;5.88;3.83;;;11.00;99.90;;;;;;5132091;27;20082;-53
2023/02/20 06:38:14;;;;;;;6.72;4.60;;;11.00;99.90;;;;;;5137085;27;20019;-53
2023/02/20 06:40:39;;;;;;;9.27;4.70;;;10.90;99.90;;;;;;5136521;27;20105;-53
2023/02/20 06:43:05;;;;;;;8.15;3.95;;;11.00;99.90;;;;;;5136603;27;20023;-53
2023/02/20 06:45:31;;;;;;;11.18;5.57;;;11.00;99.90;;;;;;5136473;27;20027;-53
2023/02/20 06:47:57;;;;;;;6.55;3.95;;;11.10;99.90;;;;;;5136838;27;20033;-54
2023/02/20 06:50:22;;;;;;;24.05;7.50;;;11.30;99.90;;;;;;5135825;27;20378;-53
2023/02/20 06:52:48;;;;;;;7.68;6.13;;;11.30;99.90;;;;;;5136506;27;20364;-53
2023/02/20 06:55:14;;;;;;;7.57;4.45;;;11.30;99.90;;;;;;5136299;27;20035;-53
2023/02/20 06:57:40;;;;;;;8.35;5.57;;;11.40;99.90;;;;;;5117320;27;20039;-54
2023/02/20 07:00:06;;;;;;;12.93;7.15;;;11.50;99.90;;;;;;5136262;27;20051;-53
2023/02/20 07:02:33;;;;;;;24.35;14.40;;;11.40;99.90;;;;;;5136103;27;20033;-53
2023/02/20 07:04:58;;;;;;;20.90;13.55;;;11.50;99.90;;;;;;5136132;27;20056;-54
2023/02/20 07:07:24;;;;;;;12.77;9.05;;;11.40;99.90;;;;;;5136285;27;20023;-53
2023/02/20 07:09:50;;;;;;;7.03;5.30;;;11.40;99.90;;;;;;5136531;27;20122;-54
2023/02/20 07:12:16;;;;;;;7.70;5.57;;;;;;;;;;5136120;27;20023;-53
2023/02/20 07:14:42;;;;;;;6.07;3.88;;;;;;;;;;5135697;27;20042;-53
2023/02/20 07:17:08;;;;;;;14.32;7.63;;;;;;;;;;5136175;27;20023;-53
2023/02/20 07:19:34;;;;;;;9.13;6.18;;;;;;;;;;5136138;27;20080;-53
2023/02/20 07:22:00;;;;;;;9.10;5.05;;;11.80;99.90;;;;;;5134111;27;20070;-53
2023/02/20 07:24:27;;;;;;;10.73;7.60;;;11.80;99.90;;;;;;5135666;27;20436;-53
2023/02/20 07:26:53;;;;;;;7.82;5.20;;;11.80;99.90;;;;;;5135698;27;20520;-52
2023/02/20 07:29:18;;;;;;;4.10;3.25;;;11.80;99.90;;;;;;5116664;27;20043;-52
2023/02/20 07:31:44;;;;;;;11.55;5.22;;;11.80;99.90;;;;;;5135716;27;20447;-54
2023/02/20 07:34:10;;;;;;;9.30;5.20;;;11.80;99.90;;;;;;5135732;27;20058;-53
2023/02/20 07:36:36;;;;;;;6.18;4.43;;;11.80;99.90;;;;;;5135440;27;20049;-52
2023/02/20 07:39:04;;;;;;;9.63;6.47;;;11.90;99.90;;;;;;5135833;27;20047;-53
2023/02/20 07:41:36;;;;;;;9.55;6.57;;;12.00;99.90;;;;;;5135346;27;20037;-53
2023/02/20 07:44:02;;;;;;;47.17;11.40;;;12.00;99.90;;;;;;5135581;27;20031;-53
2023/02/20 07:46:32;;;;;;;6.28;4.43;;;12.30;99.90;;;;;;5135223;27;20019;-53
2023/02/20 07:49:02;;;;;;;7.70;4.65;;;12.50;99.90;;;;;;5135563;27;20027;-53
2023/02/20 07:51:28;;;;;;;8.25;3.65;;;12.70;99.90;;;;;;5135400;27;20359;-52
2023/02/20 07:53:54;;;;;;;5.57;4.63;;;13.50;99.90;;;;;;5116296;27;20483;-52
2023/02/20 07:56:21;;;;;;;5.50;4.07;;;14.50;99.70;;;;;;5135115;27;20078;-51
2023/02/20 07:58:47;;;;;;;4.40;3.53;;;14.90;97.70;;;;;;5134946;27;20168;-53
2023/02/20 08:01:13;;;;;;;4.47;3.38;;;15.40;97.00;;;;;;5134594;27;20059;-52
2023/02/20 08:03:39;;;;;;;3.55;2.70;;;15.90;96.10;;;;;;5134880;27;20035;-52
2023/02/20 08:06:05;;;;;;;5.97;3.72;;;16.50;95.30;;;;;;5135319;27;20513;-53
2023/02/20 08:08:33;;;;;;;21.92;4.32;;;;;;;;;;5133016;27;20050;-52
2023/02/20 08:10:59;;;;;;;6.35;3.13;;;18.60;99.90;;;;;;5135102;27;20029;-53
2023/02/20 08:13:25;;;;;;;4.00;3.60;;;18.60;91.40;;;;;;5135047;27;20023;-53
2023/02/20 08:15:51;;;;;;;4.88;3.75;;;;;;;;;;5134579;27;20037;-53
2023/02/20 08:18:17;;;;;;;5.25;3.25;;;22.50;90.40;;;;;;5133051;27;20031;-52
2023/02/20 08:20:43;;;;;;;5.30;3.88;;;;;;;;;;5132758;27;20482;-53
2023/02/20 08:23:20;;;;;;;11.70;4.85;;;22.80;99.90;;;;;;5134718;27;20055;-53
2023/02/20 08:25:51;;;;;;;5.75;4.00;;;;;;;;;;5134772;27;20053;-54
2023/02/20 08:28:18;;;;;;;5.13;3.97;;;;;;;;;;5134664;27;20058;-53
2023/02/20 08:30:44;;;;;;;6.57;3.90;;;;;;;;;;5132585;27;20289;-54
2023/02/20 08:33:10;;;;;;;4.25;3.05;;;;;;;;;;5134597;27;20030;-51
2023/02/20 08:35:36;;;;;;;35.33;5.65;;;;;;;;;;5134286;27;20038;-49
2023/02/20 08:38:07;;;;;;;6.65;5.97;;;27.70;72.40;;;;;;5134440;27;20393;-51
2023/02/20 08:40:33;;;;;;;11.53;5.80;;;27.50;72.80;;;;;;5134696;27;20084;-51
2023/02/20 08:42:59;;;;;;;7.13;5.00;;;28.50;71.60;;;;;;5133003;27;20478;-51
2023/02/20 08:45:25;;;;;;;5.47;4.35;;;28.00;70.80;;;;;;5134365;27;20377;-49
2023/02/20 08:47:55;;;;;;;4.50;3.60;;;28.30;70.30;;;;;;5134100;27;20106;-52
2023/02/20 08:50:20;;;;;;;4.00;3.60;;;28.20;70.40;;;;;;5134463;27;20029;-54
2023/02/20 08:52:47;;;;;;;4.75;3.70;;;28.50;68.90;;;;;;5115118;28;20118;-54
2023/02/20 08:55:13;;;;;;;7.22;4.40;;;28.80;68.70;;;;;;5134317;27;20116;-53
2023/02/20 08:57:43;;;;;;;5.40;4.53;;;28.60;68.60;;;;;;5134528;27;20019;-54
2023/02/20 09:00:09;;;;;;;5.45;4.97;;;28.70;68.70;;;;;;5134196;27;20047;-57
2023/02/20 09:02:35;;;;;;;3.97;3.58;;;;;;;;;;5134021;27;20375;-58
2023/02/20 09:05:01;;;;;;;4.28;3.35;;;29.50;67.30;;;;;;5134200;28;20035;-57
2023/02/20 09:07:26;;;;;;;3.22;2.92;;;28.80;67.30;;;;;;5134474;27;20499;-58
2023/02/20 09:09:52;;;;;;;4.03;3.72;;;29.00;67.60;;;;;;5134316;27;20035;-59
2023/02/20 09:12:18;;;;;;;9.23;7.03;;;28.70;67.60;;;;;;5132414;28;20118;-58
2023/02/20 09:14:44;;;;;;;7.03;4.00;;;29.00;67.90;;;;;;5137713;27;20070;-58
2023/02/20 09:17:10;;;;;;;4.05;3.65;;;28.70;67.90;;;;;;5138446;27;20503;-58
2023/02/20 09:19:36;;;;;;;6.32;4.93;;;;;;;;;;5138080;27;20035;-54
2023/02/20 09:22:02;;;;;;;4.30;3.92;;;29.20;66.80;;;;;;5138524;27;20343;-53
2023/02/20 09:24:32;;;;;;;4.10;3.80;;;29.20;67.10;;;;;;5136331;27;20046;-54
2023/02/20 09:26:58;;;;;;;10.60;7.23;;;;;;;;;;5138001;27;20089;-54
2023/02/20 09:29:24;;;;;;;4.60;3.00;;;29.10;66.80;;;;;;5138235;27;20402;-53
2023/02/20 09:31:50;;;;;;;3.40;3.10;;;28.60;67.50;;;;;;5138571;27;20035;-53
2023/02/20 09:34:15;;;;;;;5.60;3.40;;;28.70;66.90;;;;;;5138143;27;20022;-52
2023/02/20 09:36:41;;;;;;;4.60;3.40;;;28.20;66.70;;;;;;5137739;27;20558;-54
2023/02/20 09:39:07;;;;;;;3.47;3.17;;;28.60;66.60;;;;;;5138342;27;20459;-55
2023/02/20 09:41:35;;;;;;;4.72;4.22;;;28.80;67.10;;;;;;5137856;27;20031;-54
2023/02/20 09:44:06;;;;;;;4.47;4.18;;;28.90;67.00;;;;;;5138026;27;20043;-54
2023/02/20 09:46:32;;;;;;;3.85;3.25;;;28.80;66.50;;;;;;5135955;27;20039;-54
2023/02/20 09:49:04;;;;;;;3.17;2.90;;;;;;;;;;5137734;27;20055;-54
2023/02/20 09:51:32;;;;;;;2.67;2.47;;;27.70;66.00;;;;;;5135878;27;20432;-54
2023/02/20 09:54:04;;;;;;;7.70;6.35;;;26.90;67.20;;;;;;5137908;27;20431;-54
2023/02/20 09:56:41;;;;;;;4.65;4.25;;;26.70;68.00;;;;;;5137439;27;20047;-54
2023/02/20 09:59:17;;;;;;;3.13;2.92;;;27.50;68.00;;;;;;5137548;27;20050;-54
2023/02/20 10:01:58;;;;;;;3.10;2.78;;;28.10;67.50;;;;;;5137319;27;20035;-53
2023/02/20 10:04:36;;;;;;;3.40;3.10;;;28.10;67.50;;;;;;5137912;27;20030;-55
2023/02/20 10:07:26;;;;;;;2.88;2.67;;;28.30;67.70;;;;;;5137390;27;20263;-53
2023/02/20 10:09:53;;;;;;;21.05;16.35;;;26.90;67.20;;;;;;5135431;27;20118;-55
2023/02/20 10:12:45;;;;;;;5.20;3.85;;;26.80;67.80;;;;;;5137339;27;20034;-54
2023/02/20 10:15:19;;;;;;;3.20;2.90;;;;;;;;;;5135455;27;20637;-54
2023/02/20 10:18:03;;;;;;;6.18;3.38;;;26.90;67.20;;;;;;5137182;27;20027;-54
2023/02/20 10:21:05;;;;;;;5.00;4.60;;;27.10;67.90;;;;;;5137041;27;20474;-53
2023/02/20 10:23:31;;;;;;;3.95;3.65;;;;;;;;;;5136986;27;20027;-53
2023/02/20 10:26:01;;;;;;;3.45;3.17;;;25.70;67.80;;;;;;5136056;27;20027;-53
2023/02/20 10:28:28;;;;;;;4.45;4.15;;;;;;;;;;5137273;27;20031;-54
2023/02/20 10:30:54;;;;;;;4.15;3.60;;;;;;;;;;5136792;27;20034;-55
2023/02/20 10:33:24;;;;;;;4.57;3.22;;;;;;;;;;5136915;27;20106;-54
2023/02/20 10:36:16;;;;;;;3.70;3.40;;;25.80;82.10;;;;;;5136682;27;20046;-55
2023/02/20 10:38:45;;;;;;;8.75;4.30;;;;;;;;;;5136429;27;20086;-54
2023/02/20 10:41:19;;;;;;;10.50;7.78;;;26.40;68.70;;;;;;5136729;27;20113;-54
2023/02/20 10:43:53;;;;;;;5.18;4.78;;;26.30;68.50;;;;;;5136477;27;20453;-56
2023/02/20 10:46:41;;;;;;;3.30;3.10;;;27.00;68.40;;;;;;5136711;27;20027;-55
2023/02/20 10:49:12;;;;;;;16.58;13.65;;;26.80;69.00;;;;;;5136500;27;20027;-54
2023/02/20 10:51:44;;;;;;;6.13;3.97;;;27.40;68.90;;;;;;5136581;27;20060;-53
2023/02/20 10:54:13;;;;;;;3.30;2.90;;;26.30;68.60;;;;;;5136235;27;20145;-54
2023/02/20 10:56:49;;;;;;;11.85;4.55;;;26.70;68.70;;;;;;5136339;27;20027;-53
2023/02/20 10:59:25;;;;;;;3.78;3.47;;;27.00;69.20;;;;;;5136435;27;20031;-54
2023/02/20 11:01:55;;;;;;;3.85;3.45;;;;;;;;;;5134405;27;20134;-54
2023/02/20 11:04:41;;;;;;;4.32;3.72;;;25.90;90.80;;;;;;5136403;27;20030;-56
2023/02/20 11:07:11;;;;;;;4.35;3.95;;;26.80;68.90;;;;;;5117216;27;20035;-54
2023/02/20 11:09:36;;;;;;;4.75;3.95;;;27.40;68.50;;;;;;5136262;27;20035;-54
2023/02/20 11:12:02;;;;;;;7.20;5.75;;;27.20;68.40;;;;;;5136310;27;20031;-55
2023/02/20 11:14:45;;;;;;;8.07;4.70;;;27.30;69.10;;;;;;5136205;27;20035;-54
2023/02/20 11:17:21;;;;;;;6.20;4.10;;;27.80;68.80;;;;;;5136098;27;20031;-55
2023/02/20 11:19:59;;;;;;;6.00;3.90;;;27.40;68.60;;;;;;5134310;27;20406;-54
2023/02/20 11:22:46;;;;;;;10.02;8.90;;;27.50;68.90;;;;;;5136039;27;20035;-54
2023/02/20 11:25:20;;;;;;;3.95;3.40;;;27.50;69.10;;;;;;5136017;27;20119;-55
2023/02/20 11:27:49;;;;;;;7.47;6.50;;;27.50;68.50;;;;;;5135760;27;20478;-54
2023/02/20 11:30:23;;;;;;;3.60;3.30;;;27.50;69.30;;;;;;5135893;27;20080;-55
2023/02/20 11:32:57;;;;;;;3.35;2.88;;;27.50;68.30;;;;;;5135690;27;20027;-55
2023/02/20 11:35:28;;;;;;;6.25;3.58;;;27.30;68.40;;;;;;5135670;27;20038;-54
2023/02/20 11:38:18;;;;;;;3.42;3.13;;;26.90;68.30;;;;;;5135642;27;20031;-54
2023/02/20 11:41:01;;;;;;;5.78;3.13;;;27.00;68.70;;;;;;5135414;27;20144;-55
2023/02/20 11:43:33;;;;;;;3.28;2.92;;;26.80;68.50;;;;;;5135779;27;20035;-55
2023/02/20 11:46:11;;;;;;;4.57;2.88;;;26.30;69.40;;;;;;5116293;27;20035;-54
2023/02/20 11:48:37;;;;;;;3.22;2.92;;;26.20;70.00;;;;;;5135175;27;20034;-53
2023/02/20 11:51:03;;;;;;;3.22;2.63;;;26.10;69.50;;;;;;5133972;27;20131;-52
2023/02/20 11:53:31;;;;;;;4.38;3.22;;;26.40;69.80;;;;;;5082385;27;20122;-52
2023/02/20 11:56:18;;;;;;;4.70;3.30;;;26.40;69.20;;;;;;5135231;27;20039;-51
2023/02/20 11:58:45;;;;;;;4.22;3.30;;;26.30;69.60;;;;;;5135181;27;20027;-52
2023/02/20 12:01:33;;;;;;;4.25;2.97;;;25.50;69.00;;;;;;5135020;27;20195;-55
2023/02/20 12:03:59;;;;;;;5.03;2.95;;;25.80;69.80;;;;;;5134967;27;20031;-56
2023/02/20 12:06:37;;;;;;;3.28;2.40;;;;;;;;;;5135353;27;20062;-53
2023/02/20 12:09:06;;;;;;;6.05;2.22;;;;;;;;;;5134983;27;20050;-57
2023/02/20 12:11:32;;;;;;;4.75;3.05;;;;;;;;;;5134932;27;20054;-55
2023/02/20 12:13:59;;;;;;;5.57;2.78;;;25.10;97.20;;;;;;5135475;27;20027;-54
2023/02/20 12:16:47;;;;;;;4.68;2.42;;;25.00;70.90;;;;;;5134714;27;20450;-57
2023/02/20 12:19:19;;;;;;;3.40;2.42;;;25.00;70.50;;;;;;5134703;27;20027;-57
2023/02/20 12:22:03;;;;;;;3.58;2.58;;;23.90;70.50;;;;;;5134771;27;20039;-58
2023/02/20 12:24:35;;;;;;;3.03;2.60;;;23.70;71.50;;;;;;5134981;27;20031;-59
2023/02/20 12:27:08;;;;;;;6.00;2.25;;;24.30;71.40;;;;;;5134595;27;20042;-58
2023/02/20 12:29:50;;;;;;;4.85;2.58;;;24.50;71.30;;;;;;5134974;27;20031;-57
2023/02/20 12:32:30;;;;;;;3.83;2.40;;;24.90;71.30;;;;;;5134549;27;20384;-58
2023/02/20 12:35:24;;;;;;;5.13;2.50;;;25.20;71.10;;;;;;5134516;27;20038;-57
2023/02/20 12:37:55;;;;;;;5.78;3.55;;;24.90;71.50;;;;;;5134780;27;20048;-56
2023/02/20 12:40:26;;;;;;;3.55;2.92;;;24.20;71.70;;;;;;5134801;27;20083;-56
2023/02/20 12:42:56;;;;;;;3.40;2.90;;;23.60;72.70;;;;;;5134728;27;20332;-57
2023/02/20 12:45:45;;;;;;;3.42;2.83;;;23.50;73.50;;;;;;5134473;27;20535;-57
2023/02/20 12:48:27;;;;;;;3.70;3.00;;;23.20;73.50;;;;;;5131952;27;20046;-55
2023/02/20 12:51:23;;;;;;;4.72;3.45;;;22.70;73.30;;;;;;5134387;27;20039;-58
2023/02/20 12:53:54;;;;;;;6.05;3.25;;;22.30;73.70;;;;;;5134479;27;20029;-56
2023/02/20 12:56:33;;;;;;;4.25;2.63;;;22.40;73.70;;;;;;5132270;27;20043;-55
2023/02/20 12:59:33;;;;;;;6.70;2.75;;;22.70;74.30;;;;;;5133700;27;20046;-57
2023/02/20 13:02:11;;;;;;;3.10;2.33;;;23.10;74.20;;;;;;5134339;27;20035;-54
2023/02/20 13:04:52;;;;;;;4.47;2.53;;;23.00;73.60;;;;;;5134107;27;20032;-55
2023/02/20 13:07:28;;;;;;;3.25;2.45;;;23.20;74.90;;;;;;5134037;27;20019;-59
2023/02/20 13:10:05;;;;;;;6.47;2.83;;;23.20;75.10;;;;;;5134095;27;20495;-57
2023/02/20 13:12:31;;;;;;;3.70;2.35;;;22.90;73.50;;;;;;5133985;27;20030;-56
2023/02/20 13:15:14;;;;;;;4.35;2.20;;;22.30;74.00;;;;;;5134010;27;20106;-57
2023/02/20 13:18:16;;;;;;;3.40;2.30;;;22.70;74.20;;;;;;5131730;28;20494;-56
2023/02/20 13:20:49;;;;;;;4.97;2.60;;;22.50;74.30;;;;;;5131741;28;20031;-56
2023/02/20 13:23:15;;;;;;;8.18;3.47;;;22.70;75.10;;;;;;5128855;28;20172;-57
2023/02/20 13:25:48;;;;;;;3.97;2.42;;;22.30;75.30;;;;;;5114373;28;20424;-56
2023/02/20 13:28:19;;;;;;;6.30;2.70;;;22.10;74.90;;;;;;5131668;28;20055;-56